sensor_id;sensor_type;location;lat;lon;timestamp;P1;durP1;ratioP1;P2;durP2;ratioP2
47225;SDS011;32965;64.142;-21.912;2023-10-08T00:01:28;7.53;;;1.10;;
47225;SDS011;32965;64.142;-21.912;2023-10-08T00:03:58;6.65;;;1.52;;
47225;SDS011;32965;64.142;-21.912;2023-10-08T00:06:27;4.85;;;1.35;;
47225;SDS011;32965;64.142;-21.912;2023-10-08T00:08:53;1.63;;;0.80;;
47225;SDS011;32965;64.142;-21.912;2023-10-08T00:11:25;3.07;;;1.00;;
47225;SDS011;32965;64.142;-21.912;2023-10-08T00:13:51;4.03;;;1.10;;
47225;SDS011;32965;64.142;-21.912;2023-10-08T00:16:21;4.43;;;1.15;;
47225;SDS011;32965;64.142;-21.912;2023-10-08T00:18:47;5.07;;;1.50;;
47225;SDS011;32965;64.142;-21.912;2023-10-08T00:24:13;5.57;;;1.47;;
47225;SDS011;32965;64.142;-21.912;2023-10-08T00:26:40;6.78;;;1.73;;
47225;SDS011;32965;64.142;-21.912;2023-10-08T00:29:06;5.73;;;1.37;;
47225;SDS011;32965;64.142;-21.912;2023-10-08T00:32:03;5.80;;;1.07;;
47225;SDS011;32965;64.142;-21.912;2023-10-08T00:34:36;6.13;;;1.30;;
47225;SDS011;32965;64.142;-21.912;2023-10-08T00:39:59;6.90;;;1.47;;
47225;SDS011;32965;64.142;-21.912;2023-10-08T00:42:25;4.00;;;1.00;;
47225;SDS011;32965;64.142;-21.912;2023-10-08T00:48:15;5.07;;;1.40;;
47225;SDS011;32965;64.142;-21.912;2023-10-08T00:50:42;5.47;;;1.30;;
47225;SDS011;32965;64.142;-21.912;2023-10-08T00:53:11;6.63;;;2.10;;
47225;SDS011;32965;64.142;-21.912;2023-10-08T00:55:49;5.93;;;1.35;;
47225;SDS011;32965;64.142;-21.912;2023-10-08T00:58:25;5.83;;;1.40;;
47225;SDS011;32965;64.142;-21.912;2023-10-08T01:03:48;6.87;;;1.50;;
47225;SDS011;32965;64.142;-21.912;2023-10-08T01:06:15;6.83;;;1.90;;
47225;SDS011;32965;64.142;-21.912;2023-10-08T01:08:46;6.00;;;1.57;;
47225;SDS011;32965;64.142;-21.912;2023-10-08T01:13:45;7.78;;;1.15;;
47225;SDS011;32965;64.142;-21.912;2023-10-08T01:16:20;12.75;;;2.00;;
47225;SDS011;32965;64.142;-21.912;2023-10-08T01:18:46;10.10;;;1.73;;
47225;SDS011;32965;64.142;-21.912;2023-10-08T01:21:16;7.90;;;1.70;;
47225;SDS011;32965;64.142;-21.912;2023-10-08T01:23:56;10.00;;;1.60;;
47225;SDS011;32965;64.142;-21.912;2023-10-08T01:26:25;11.02;;;1.23;;
47225;SDS011;32965;64.142;-21.912;2023-10-08T01:28:54;8.35;;;1.60;;
47225;SDS011;32965;64.142;-21.912;2023-10-08T01:31:20;7.03;;;1.35;;
47225;SDS011;32965;64.142;-21.912;2023-10-08T01:33:46;7.32;;;1.63;;
47225;SDS011;32965;64.142;-21.912;2023-10-08T01:36:15;8.05;;;2.15;;
47225;SDS011;32965;64.142;-21.912;2023-10-08T01:38:41;9.07;;;1.23;;
47225;SDS011;32965;64.142;-21.912;2023-10-08T01:41:08;4.30;;;1.20;;
47225;SDS011;32965;64.142;-21.912;2023-10-08T01:43:44;10.18;;;1.80;;
47225;SDS011;32965;64.142;-21.912;2023-10-08T01:46:11;5.22;;;1.40;;
47225;SDS011;32965;64.142;-21.912;2023-10-08T01:48:40;8.32;;;1.50;;
47225;SDS011;32965;64.142;-21.912;2023-10-08T01:54:04;8.95;;;2.13;;
47225;SDS011;32965;64.142;-21.912;2023-10-08T01:59:30;7.97;;;1.80;;
47225;SDS011;32965;64.142;-21.912;2023-10-08T02:01:58;6.47;;;1.20;;
47225;SDS011;32965;64.142;-21.912;2023-10-08T02:04:24;9.65;;;1.60;;
47225;SDS011;32965;64.142;-21.912;2023-10-08T02:06:50;7.20;;;1.67;;
47225;SDS011;32965;64.142;-21.912;2023-10-08T02:12:38;10.93;;;1.30;;
47225;SDS011;32965;64.142;-21.912;2023-10-08T02:15:04;8.20;;;1.70;;
47225;SDS011;32965;64.142;-21.912;2023-10-08T02:17:32;10.73;;;2.35;;
47225;SDS011;32965;64.142;-21.912;2023-10-08T02:19:58;11.27;;;1.98;;
47225;SDS011;32965;64.142;-21.912;2023-10-08T02:29:09;6.60;;;1.52;;
47225;SDS011;32965;64.142;-21.912;2023-10-08T02:31:38;10.38;;;1.77;;
47225;SDS011;32965;64.142;-21.912;2023-10-08T02:34:05;6.10;;;1.77;;
47225;SDS011;32965;64.142;-21.912;2023-10-08T02:36:34;6.80;;;1.60;;
47225;SDS011;32965;64.142;-21.912;2023-10-08T02:39:04;5.22;;;1.75;;
47225;SDS011;32965;64.142;-21.912;2023-10-08T02:41:40;4.55;;;1.48;;
47225;SDS011;32965;64.142;-21.912;2023-10-08T02:44:11;8.57;;;1.63;;
47225;SDS011;32965;64.142;-21.912;2023-10-08T02:46:42;6.07;;;1.60;;
47225;SDS011;32965;64.142;-21.912;2023-10-08T02:49:14;7.03;;;1.50;;
47225;SDS011;32965;64.142;-21.912;2023-10-08T02:51:53;8.60;;;1.83;;
47225;SDS011;32965;64.142;-21.912;2023-10-08T02:54:20;5.57;;;1.20;;
47225;SDS011;32965;64.142;-21.912;2023-10-08T02:56:56;5.28;;;1.13;;
47225;SDS011;32965;64.142;-21.912;2023-10-08T02:59:31;11.90;;;1.58;;
47225;SDS011;32965;64.142;-21.912;2023-10-08T03:02:08;6.47;;;1.42;;
47225;SDS011;32965;64.142;-21.912;2023-10-08T03:04:42;7.47;;;1.67;;
47225;SDS011;32965;64.142;-21.912;2023-10-08T03:07:11;5.65;;;1.80;;
47225;SDS011;32965;64.142;-21.912;2023-10-08T03:09:46;5.85;;;1.30;;
47225;SDS011;32965;64.142;-21.912;2023-10-08T03:12:14;10.45;;;1.73;;
47225;SDS011;32965;64.142;-21.912;2023-10-08T03:14:42;8.05;;;1.50;;
47225;SDS011;32965;64.142;-21.912;2023-10-08T03:17:29;5.97;;;1.35;;
47225;SDS011;32965;64.142;-21.912;2023-10-08T03:20:02;9.60;;;1.20;;
47225;SDS011;32965;64.142;-21.912;2023-10-08T03:22:51;7.13;;;1.33;;
47225;SDS011;32965;64.142;-21.912;2023-10-08T03:25:16;7.30;;;1.23;;
47225;SDS011;32965;64.142;-21.912;2023-10-08T03:27:43;5.90;;;1.23;;
47225;SDS011;32965;64.142;-21.912;2023-10-08T03:30:09;6.72;;;1.30;;
47225;SDS011;32965;64.142;-21.912;2023-10-08T03:32:44;4.40;;;1.20;;
47225;SDS011;32965;64.142;-21.912;2023-10-08T03:38:08;8.63;;;1.52;;
47225;SDS011;32965;64.142;-21.912;2023-10-08T03:40:56;5.88;;;1.10;;
47225;SDS011;32965;64.142;-21.912;2023-10-08T03:43:33;9.05;;;2.08;;
47225;SDS011;32965;64.142;-21.912;2023-10-08T03:46:07;4.93;;;1.63;;
47225;SDS011;32965;64.142;-21.912;2023-10-08T03:48:40;5.70;;;1.77;;
47225;SDS011;32965;64.142;-21.912;2023-10-08T03:51:09;6.32;;;1.30;;
47225;SDS011;32965;64.142;-21.912;2023-10-08T03:53:36;8.00;;;1.85;;
47225;SDS011;32965;64.142;-21.912;2023-10-08T03:56:26;6.25;;;1.13;;
47225;SDS011;32965;64.142;-21.912;2023-10-08T03:58:56;6.88;;;1.17;;
47225;SDS011;32965;64.142;-21.912;2023-10-08T04:03:55;12.45;;;1.90;;
47225;SDS011;32965;64.142;-21.912;2023-10-08T04:06:26;7.80;;;1.65;;
47225;SDS011;32965;64.142;-21.912;2023-10-08T04:09:00;4.68;;;1.27;;
47225;SDS011;32965;64.142;-21.912;2023-10-08T04:11:38;5.72;;;1.42;;
47225;SDS011;32965;64.142;-21.912;2023-10-08T04:14:14;8.85;;;1.65;;
47225;SDS011;32965;64.142;-21.912;2023-10-08T04:16:41;5.85;;;1.00;;
47225;SDS011;32965;64.142;-21.912;2023-10-08T04:19:07;5.60;;;1.80;;
47225;SDS011;32965;64.142;-21.912;2023-10-08T04:21:34;3.40;;;0.65;;
47225;SDS011;32965;64.142;-21.912;2023-10-08T04:24:00;4.45;;;1.20;;
47225;SDS011;32965;64.142;-21.912;2023-10-08T04:26:28;2.78;;;0.70;;
47225;SDS011;32965;64.142;-21.912;2023-10-08T04:28:57;7.35;;;1.15;;
47225;SDS011;32965;64.142;-21.912;2023-10-08T04:31:26;7.18;;;1.48;;
47225;SDS011;32965;64.142;-21.912;2023-10-08T04:33:53;2.85;;;0.85;;
47225;SDS011;32965;64.142;-21.912;2023-10-08T04:36:25;7.45;;;1.15;;
47225;SDS011;32965;64.142;-21.912;2023-10-08T04:38:51;6.63;;;1.45;;
47225;SDS011;32965;64.142;-21.912;2023-10-08T04:41:20;5.72;;;1.08;;
47225;SDS011;32965;64.142;-21.912;2023-10-08T04:43:52;7.15;;;1.35;;
47225;SDS011;32965;64.142;-21.912;2023-10-08T04:46:20;6.72;;;1.48;;
47225;SDS011;32965;64.142;-21.912;2023-10-08T04:49:11;5.60;;;0.90;;
47225;SDS011;32965;64.142;-21.912;2023-10-08T04:51:59;5.60;;;1.38;;
47225;SDS011;32965;64.142;-21.912;2023-10-08T04:54:30;7.70;;;1.63;;
47225;SDS011;32965;64.142;-21.912;2023-10-08T04:56:59;13.05;;;1.50;;
47225;SDS011;32965;64.142;-21.912;2023-10-08T04:59:29;7.07;;;1.50;;
47225;SDS011;32965;64.142;-21.912;2023-10-08T05:04:56;3.42;;;1.45;;
47225;SDS011;32965;64.142;-21.912;2023-10-08T05:07:51;9.95;;;1.80;;
47225;SDS011;32965;64.142;-21.912;2023-10-08T05:10:19;12.32;;;2.00;;
47225;SDS011;32965;64.142;-21.912;2023-10-08T05:12:54;10.48;;;2.53;;
47225;SDS011;32965;64.142;-21.912;2023-10-08T05:15:29;12.00;;;2.80;;
47225;SDS011;32965;64.142;-21.912;2023-10-08T05:18:06;11.30;;;2.15;;
47225;SDS011;32965;64.142;-21.912;2023-10-08T05:20:48;9.43;;;1.50;;
47225;SDS011;32965;64.142;-21.912;2023-10-08T05:23:14;12.07;;;2.00;;
47225;SDS011;32965;64.142;-21.912;2023-10-08T05:26:02;12.35;;;1.92;;
47225;SDS011;32965;64.142;-21.912;2023-10-08T05:31:26;16.15;;;2.10;;
47225;SDS011;32965;64.142;-21.912;2023-10-08T05:34:13;17.75;;;1.80;;
47225;SDS011;32965;64.142;-21.912;2023-10-08T05:36:48;7.82;;;1.55;;
47225;SDS011;32965;64.142;-21.912;2023-10-08T05:39:26;8.93;;;1.52;;
47225;SDS011;32965;64.142;-21.912;2023-10-08T05:41:57;8.60;;;1.70;;
47225;SDS011;32965;64.142;-21.912;2023-10-08T05:44:40;9.05;;;1.90;;
47225;SDS011;32965;64.142;-21.912;2023-10-08T05:47:12;5.40;;;1.20;;
47225;SDS011;32965;64.142;-21.912;2023-10-08T05:49:59;10.13;;;2.15;;
47225;SDS011;32965;64.142;-21.912;2023-10-08T05:52:44;8.88;;;1.85;;
47225;SDS011;32965;64.142;-21.912;2023-10-08T05:55:33;10.25;;;2.28;;
47225;SDS011;32965;64.142;-21.912;2023-10-08T05:58:04;8.82;;;1.85;;
47225;SDS011;32965;64.142;-21.912;2023-10-08T06:04:18;10.73;;;2.03;;
47225;SDS011;32965;64.142;-21.912;2023-10-08T06:07:06;14.35;;;1.55;;
47225;SDS011;32965;64.142;-21.912;2023-10-08T06:09:42;7.47;;;0.93;;
47225;SDS011;32965;64.142;-21.912;2023-10-08T06:12:16;8.32;;;1.40;;
47225;SDS011;32965;64.142;-21.912;2023-10-08T06:14:55;7.32;;;1.98;;
47225;SDS011;32965;64.142;-21.912;2023-10-08T06:20:34;13.57;;;1.88;;
47225;SDS011;32965;64.142;-21.912;2023-10-08T06:23:02;3.38;;;0.93;;
47225;SDS011;32965;64.142;-21.912;2023-10-08T06:28:50;7.60;;;1.60;;
47225;SDS011;32965;64.142;-21.912;2023-10-08T06:31:22;5.47;;;1.30;;
47225;SDS011;32965;64.142;-21.912;2023-10-08T06:33:50;4.28;;;1.52;;
47225;SDS011;32965;64.142;-21.912;2023-10-08T06:36:16;8.68;;;1.42;;
47225;SDS011;32965;64.142;-21.912;2023-10-08T06:38:43;9.32;;;1.80;;
47225;SDS011;32965;64.142;-21.912;2023-10-08T06:41:14;4.40;;;0.95;;
47225;SDS011;32965;64.142;-21.912;2023-10-08T06:43:46;5.57;;;0.70;;
47225;SDS011;32965;64.142;-21.912;2023-10-08T06:46:30;3.53;;;0.70;;
47225;SDS011;32965;64.142;-21.912;2023-10-08T06:49:00;8.68;;;0.85;;
47225;SDS011;32965;64.142;-21.912;2023-10-08T06:51:26;3.65;;;0.80;;
47225;SDS011;32965;64.142;-21.912;2023-10-08T06:53:55;4.70;;;0.88;;
47225;SDS011;32965;64.142;-21.912;2023-10-08T06:56:25;6.43;;;1.50;;
47225;SDS011;32965;64.142;-21.912;2023-10-08T06:58:50;11.60;;;1.67;;
47225;SDS011;32965;64.142;-21.912;2023-10-08T07:01:20;7.60;;;1.30;;
47225;SDS011;32965;64.142;-21.912;2023-10-08T07:04:04;8.10;;;2.00;;
47225;SDS011;32965;64.142;-21.912;2023-10-08T07:06:31;11.27;;;1.00;;
47225;SDS011;32965;64.142;-21.912;2023-10-08T07:09:01;7.15;;;1.25;;
47225;SDS011;32965;64.142;-21.912;2023-10-08T07:11:34;4.65;;;1.08;;
47225;SDS011;32965;64.142;-21.912;2023-10-08T07:14:03;9.90;;;2.00;;
47225;SDS011;32965;64.142;-21.912;2023-10-08T07:16:30;9.40;;;1.10;;
47225;SDS011;32965;64.142;-21.912;2023-10-08T07:18:56;8.27;;;1.15;;
47225;SDS011;32965;64.142;-21.912;2023-10-08T07:21:30;8.77;;;1.10;;
47225;SDS011;32965;64.142;-21.912;2023-10-08T07:24:10;6.43;;;1.10;;
47225;SDS011;32965;64.142;-21.912;2023-10-08T07:26:40;6.63;;;1.48;;
47225;SDS011;32965;64.142;-21.912;2023-10-08T07:29:11;9.77;;;1.30;;
47225;SDS011;32965;64.142;-21.912;2023-10-08T07:31:45;13.30;;;1.60;;
47225;SDS011;32965;64.142;-21.912;2023-10-08T07:34:15;16.52;;;2.33;;
47225;SDS011;32965;64.142;-21.912;2023-10-08T07:36:43;6.53;;;1.65;;
47225;SDS011;32965;64.142;-21.912;2023-10-08T07:39:12;10.93;;;1.73;;
47225;SDS011;32965;64.142;-21.912;2023-10-08T07:45:12;8.50;;;1.77;;
47225;SDS011;32965;64.142;-21.912;2023-10-08T07:47:42;12.52;;;2.65;;
47225;SDS011;32965;64.142;-21.912;2023-10-08T07:50:09;13.93;;;2.30;;
47225;SDS011;32965;64.142;-21.912;2023-10-08T07:52:54;11.32;;;1.70;;
47225;SDS011;32965;64.142;-21.912;2023-10-08T07:55:21;9.82;;;1.88;;
47225;SDS011;32965;64.142;-21.912;2023-10-08T07:57:47;13.52;;;2.30;;
47225;SDS011;32965;64.142;-21.912;2023-10-08T08:00:13;9.57;;;2.13;;
47225;SDS011;32965;64.142;-21.912;2023-10-08T08:02:51;19.38;;;2.65;;
47225;SDS011;32965;64.142;-21.912;2023-10-08T08:05:22;13.43;;;2.65;;
47225;SDS011;32965;64.142;-21.912;2023-10-08T08:07:49;12.15;;;2.33;;
47225;SDS011;32965;64.142;-21.912;2023-10-08T08:16:44;10.73;;;1.92;;
47225;SDS011;32965;64.142;-21.912;2023-10-08T08:19:13;19.35;;;2.70;;
47225;SDS011;32965;64.142;-21.912;2023-10-08T08:21:41;14.00;;;2.50;;
47225;SDS011;32965;64.142;-21.912;2023-10-08T08:24:10;9.13;;;2.08;;
47225;SDS011;32965;64.142;-21.912;2023-10-08T08:26:37;14.88;;;1.85;;
47225;SDS011;32965;64.142;-21.912;2023-10-08T08:29:26;10.43;;;1.92;;
47225;SDS011;32965;64.142;-21.912;2023-10-08T08:31:54;15.30;;;2.05;;
47225;SDS011;32965;64.142;-21.912;2023-10-08T08:34:22;10.60;;;1.50;;
47225;SDS011;32965;64.142;-21.912;2023-10-08T08:36:49;14.60;;;2.10;;
47225;SDS011;32965;64.142;-21.912;2023-10-08T08:39:15;11.70;;;2.55;;
47225;SDS011;32965;64.142;-21.912;2023-10-08T08:42:01;15.93;;;2.47;;
47225;SDS011;32965;64.142;-21.912;2023-10-08T08:44:33;10.50;;;2.45;;
47225;SDS011;32965;64.142;-21.912;2023-10-08T08:47:01;8.82;;;1.60;;
47225;SDS011;32965;64.142;-21.912;2023-10-08T08:49:34;18.88;;;2.78;;
47225;SDS011;32965;64.142;-21.912;2023-10-08T08:52:04;10.27;;;2.00;;
47225;SDS011;32965;64.142;-21.912;2023-10-08T08:54:30;9.93;;;2.28;;
47225;SDS011;32965;64.142;-21.912;2023-10-08T08:56:57;8.20;;;1.85;;
47225;SDS011;32965;64.142;-21.912;2023-10-08T08:59:29;10.65;;;2.17;;
47225;SDS011;32965;64.142;-21.912;2023-10-08T09:01:59;14.85;;;2.65;;
47225;SDS011;32965;64.142;-21.912;2023-10-08T09:04:29;11.32;;;2.05;;
47225;SDS011;32965;64.142;-21.912;2023-10-08T09:06:56;11.43;;;2.00;;
47225;SDS011;32965;64.142;-21.912;2023-10-08T09:09:22;14.10;;;3.05;;
47225;SDS011;32965;64.142;-21.912;2023-10-08T09:11:50;12.48;;;2.13;;
47225;SDS011;32965;64.142;-21.912;2023-10-08T09:14:20;9.38;;;1.65;;
47225;SDS011;32965;64.142;-21.912;2023-10-08T09:16:50;13.32;;;1.92;;
47225;SDS011;32965;64.142;-21.912;2023-10-08T09:19:19;9.23;;;2.17;;
47225;SDS011;32965;64.142;-21.912;2023-10-08T09:22:00;14.35;;;2.25;;
47225;SDS011;32965;64.142;-21.912;2023-10-08T09:24:29;9.02;;;1.85;;
47225;SDS011;32965;64.142;-21.912;2023-10-08T09:26:55;11.77;;;2.20;;
47225;SDS011;32965;64.142;-21.912;2023-10-08T09:29:23;14.05;;;2.70;;
47225;SDS011;32965;64.142;-21.912;2023-10-08T09:31:56;16.40;;;1.98;;
47225;SDS011;32965;64.142;-21.912;2023-10-08T09:34:26;10.40;;;2.00;;
47225;SDS011;32965;64.142;-21.912;2023-10-08T09:36:55;13.68;;;2.53;;
47225;SDS011;32965;64.142;-21.912;2023-10-08T09:39:23;13.55;;;2.58;;
47225;SDS011;32965;64.142;-21.912;2023-10-08T09:41:53;11.32;;;2.38;;
47225;SDS011;32965;64.142;-21.912;2023-10-08T09:44:20;9.77;;;2.08;;
47225;SDS011;32965;64.142;-21.912;2023-10-08T09:47:10;11.85;;;2.80;;
47225;SDS011;32965;64.142;-21.912;2023-10-08T09:49:41;10.82;;;2.00;;
47225;SDS011;32965;64.142;-21.912;2023-10-08T09:52:16;13.88;;;2.58;;
47225;SDS011;32965;64.142;-21.912;2023-10-08T09:54:44;13.85;;;2.25;;
47225;SDS011;32965;64.142;-21.912;2023-10-08T09:57:18;15.45;;;2.38;;
47225;SDS011;32965;64.142;-21.912;2023-10-08T10:00:02;13.98;;;2.75;;
47225;SDS011;32965;64.142;-21.912;2023-10-08T10:02:40;11.23;;;2.63;;
47225;SDS011;32965;64.142;-21.912;2023-10-08T10:08:30;17.17;;;3.03;;
47225;SDS011;32965;64.142;-21.912;2023-10-08T10:11:01;13.30;;;2.30;;
47225;SDS011;32965;64.142;-21.912;2023-10-08T10:13:28;12.13;;;2.40;;
47225;SDS011;32965;64.142;-21.912;2023-10-08T10:19:17;14.50;;;2.63;;
47225;SDS011;32965;64.142;-21.912;2023-10-08T10:21:45;13.45;;;3.33;;
47225;SDS011;32965;64.142;-21.912;2023-10-08T10:27:34;12.52;;;3.42;;
47225;SDS011;32965;64.142;-21.912;2023-10-08T10:30:03;10.68;;;2.65;;
47225;SDS011;32965;64.142;-21.912;2023-10-08T10:32:34;10.18;;;2.78;;
47225;SDS011;32965;64.142;-21.912;2023-10-08T10:37:43;11.10;;;2.60;;
47225;SDS011;32965;64.142;-21.912;2023-10-08T10:43:24;12.95;;;2.55;;
47225;SDS011;32965;64.142;-21.912;2023-10-08T10:45:58;11.95;;;2.10;;
47225;SDS011;32965;64.142;-21.912;2023-10-08T10:48:59;16.10;;;1.85;;
47225;SDS011;32965;64.142;-21.912;2023-10-08T10:51:47;13.52;;;2.85;;
47225;SDS011;32965;64.142;-21.912;2023-10-08T10:54:17;8.75;;;1.90;;
47225;SDS011;32965;64.142;-21.912;2023-10-08T10:56:49;5.70;;;1.50;;
47225;SDS011;32965;64.142;-21.912;2023-10-08T10:59:29;9.45;;;2.28;;
47225;SDS011;32965;64.142;-21.912;2023-10-08T11:05:24;14.45;;;2.25;;
47225;SDS011;32965;64.142;-21.912;2023-10-08T11:07:56;14.95;;;2.38;;
47225;SDS011;32965;64.142;-21.912;2023-10-08T11:10:36;14.23;;;2.53;;
47225;SDS011;32965;64.142;-21.912;2023-10-08T11:13:12;10.35;;;2.03;;
47225;SDS011;32965;64.142;-21.912;2023-10-08T11:18:19;10.07;;;2.33;;
47225;SDS011;32965;64.142;-21.912;2023-10-08T11:20:46;11.93;;;3.20;;
47225;SDS011;32965;64.142;-21.912;2023-10-08T11:23:35;15.85;;;3.95;;
47225;SDS011;32965;64.142;-21.912;2023-10-08T11:26:02;11.02;;;1.98;;
47225;SDS011;32965;64.142;-21.912;2023-10-08T11:28:34;12.25;;;3.05;;
47225;SDS011;32965;64.142;-21.912;2023-10-08T11:31:10;11.80;;;2.65;;
47225;SDS011;32965;64.142;-21.912;2023-10-08T11:33:40;12.00;;;2.75;;
47225;SDS011;32965;64.142;-21.912;2023-10-08T11:36:07;6.70;;;1.70;;
47225;SDS011;32965;64.142;-21.912;2023-10-08T11:39:10;8.10;;;2.15;;
47225;SDS011;32965;64.142;-21.912;2023-10-08T11:41:56;9.93;;;2.00;;
47225;SDS011;32965;64.142;-21.912;2023-10-08T11:47:04;13.13;;;2.47;;
47225;SDS011;32965;64.142;-21.912;2023-10-08T11:54:47;16.35;;;3.03;;
47225;SDS011;32965;64.142;-21.912;2023-10-08T11:57:14;18.75;;;2.58;;
47225;SDS011;32965;64.142;-21.912;2023-10-08T11:59:46;8.48;;;2.28;;
47225;SDS011;32965;64.142;-21.912;2023-10-08T12:02:12;11.52;;;2.22;;
47225;SDS011;32965;64.142;-21.912;2023-10-08T12:04:42;13.98;;;2.78;;
47225;SDS011;32965;64.142;-21.912;2023-10-08T12:07:10;11.55;;;2.45;;
47225;SDS011;32965;64.142;-21.912;2023-10-08T12:09:36;21.05;;;3.67;;
47225;SDS011;32965;64.142;-21.912;2023-10-08T12:12:03;11.48;;;3.35;;
47225;SDS011;32965;64.142;-21.912;2023-10-08T12:17:09;9.40;;;2.85;;
47225;SDS011;32965;64.142;-21.912;2023-10-08T12:19:39;12.02;;;2.63;;
47225;SDS011;32965;64.142;-21.912;2023-10-08T12:22:08;12.80;;;2.63;;
47225;SDS011;32965;64.142;-21.912;2023-10-08T12:24:34;16.95;;;2.75;;
47225;SDS011;32965;64.142;-21.912;2023-10-08T12:27:00;14.63;;;3.20;;
47225;SDS011;32965;64.142;-21.912;2023-10-08T12:32:04;15.40;;;2.75;;
47225;SDS011;32965;64.142;-21.912;2023-10-08T12:34:34;12.02;;;3.20;;
47225;SDS011;32965;64.142;-21.912;2023-10-08T12:39:36;12.05;;;2.70;;
47225;SDS011;32965;64.142;-21.912;2023-10-08T12:42:21;11.15;;;2.17;;
47225;SDS011;32965;64.142;-21.912;2023-10-08T12:49:57;15.45;;;3.30;;
47225;SDS011;32965;64.142;-21.912;2023-10-08T12:52:23;12.13;;;3.10;;
47225;SDS011;32965;64.142;-21.912;2023-10-08T13:02:39;13.63;;;2.30;;
47225;SDS011;32965;64.142;-21.912;2023-10-08T15:50:54;17.85;;;4.72;;
47225;SDS011;32965;64.142;-21.912;2023-10-08T15:53:20;19.58;;;2.97;;
47225;SDS011;32965;64.142;-21.912;2023-10-08T15:55:46;20.13;;;4.47;;
47225;SDS011;32965;64.142;-21.912;2023-10-08T15:58:12;15.70;;;4.22;;
47225;SDS011;32965;64.142;-21.912;2023-10-08T16:03:42;23.13;;;5.03;;
47225;SDS011;32965;64.142;-21.912;2023-10-08T16:06:08;15.82;;;3.22;;
47225;SDS011;32965;64.142;-21.912;2023-10-08T16:08:34;17.95;;;3.50;;
47225;SDS011;32965;64.142;-21.912;2023-10-08T16:16:52;18.65;;;3.60;;
47225;SDS011;32965;64.142;-21.912;2023-10-08T16:19:18;15.65;;;3.53;;
47225;SDS011;32965;64.142;-21.912;2023-10-08T16:21:44;23.13;;;4.20;;
47225;SDS011;32965;64.142;-21.912;2023-10-08T16:24:11;18.73;;;3.75;;
47225;SDS011;32965;64.142;-21.912;2023-10-08T16:29:15;17.17;;;3.50;;
47225;SDS011;32965;64.142;-21.912;2023-10-08T16:34:11;14.15;;;3.58;;
47225;SDS011;32965;64.142;-21.912;2023-10-08T16:36:37;21.98;;;3.78;;
47225;SDS011;32965;64.142;-21.912;2023-10-08T16:39:04;20.65;;;3.97;;
47225;SDS011;32965;64.142;-21.912;2023-10-08T16:41:30;19.83;;;3.90;;
47225;SDS011;32965;64.142;-21.912;2023-10-08T16:43:58;18.38;;;3.10;;
47225;SDS011;32965;64.142;-21.912;2023-10-08T16:46:23;20.67;;;3.85;;
47225;SDS011;32965;64.142;-21.912;2023-10-08T16:48:50;18.77;;;4.05;;
47225;SDS011;32965;64.142;-21.912;2023-10-08T16:51:17;18.52;;;3.63;;
47225;SDS011;32965;64.142;-21.912;2023-10-08T16:53:43;16.88;;;4.40;;
47225;SDS011;32965;64.142;-21.912;2023-10-08T16:56:11;22.20;;;3.85;;
47225;SDS011;32965;64.142;-21.912;2023-10-08T16:58:37;22.05;;;4.38;;
47225;SDS011;32965;64.142;-21.912;2023-10-08T17:01:03;19.45;;;3.97;;
47225;SDS011;32965;64.142;-21.912;2023-10-08T17:03:37;17.08;;;4.15;;
47225;SDS011;32965;64.142;-21.912;2023-10-08T17:06:11;22.85;;;3.85;;
47225;SDS011;32965;64.142;-21.912;2023-10-08T17:08:37;23.25;;;4.32;;
47225;SDS011;32965;64.142;-21.912;2023-10-08T17:11:04;20.30;;;3.22;;
47225;SDS011;32965;64.142;-21.912;2023-10-08T17:13:35;19.25;;;3.88;;
47225;SDS011;32965;64.142;-21.912;2023-10-08T17:16:02;18.88;;;3.28;;
47225;SDS011;32965;64.142;-21.912;2023-10-08T17:18:30;13.63;;;3.10;;
47225;SDS011;32965;64.142;-21.912;2023-10-08T17:20:56;17.85;;;4.22;;
47225;SDS011;32965;64.142;-21.912;2023-10-08T17:23:22;14.57;;;3.28;;
47225;SDS011;32965;64.142;-21.912;2023-10-08T17:28:24;20.27;;;3.72;;
47225;SDS011;32965;64.142;-21.912;2023-10-08T17:30:51;23.92;;;4.20;;
47225;SDS011;32965;64.142;-21.912;2023-10-08T17:33:17;27.73;;;4.00;;
47225;SDS011;32965;64.142;-21.912;2023-10-08T17:35:43;20.70;;;3.80;;
47225;SDS011;32965;64.142;-21.912;2023-10-08T17:38:09;20.13;;;5.10;;
47225;SDS011;32965;64.142;-21.912;2023-10-08T17:40:37;17.42;;;3.85;;
47225;SDS011;32965;64.142;-21.912;2023-10-08T17:48:08;12.88;;;3.40;;
47225;SDS011;32965;64.142;-21.912;2023-10-08T17:55:46;20.48;;;4.30;;
47225;SDS011;32965;64.142;-21.912;2023-10-08T17:58:12;18.27;;;4.50;;
47225;SDS011;32965;64.142;-21.912;2023-10-08T18:05:56;17.65;;;4.40;;
47225;SDS011;32965;64.142;-21.912;2023-10-08T18:08:23;21.73;;;3.88;;
47225;SDS011;32965;64.142;-21.912;2023-10-08T18:34:09;22.48;;;4.70;;
47225;SDS011;32965;64.142;-21.912;2023-10-08T18:36:38;18.90;;;3.45;;
47225;SDS011;32965;64.142;-21.912;2023-10-08T21:26:16;18.55;;;2.88;;
47225;SDS011;32965;64.142;-21.912;2023-10-08T21:28:43;14.63;;;3.72;;
47225;SDS011;32965;64.142;-21.912;2023-10-08T21:31:09;14.95;;;3.80;;
47225;SDS011;32965;64.142;-21.912;2023-10-08T21:33:35;19.48;;;3.40;;
47225;SDS011;32965;64.142;-21.912;2023-10-08T21:36:02;12.65;;;2.83;;
47225;SDS011;32965;64.142;-21.912;2023-10-08T21:54:00;16.10;;;3.10;;
47225;SDS011;32965;64.142;-21.912;2023-10-08T22:12:01;14.57;;;2.92;;
47225;SDS011;32965;64.142;-21.912;2023-10-08T23:58:29;23.77;;;4.18;;
